Time;durP1;ratioP1;P1;durP2;ratioP2;P2;SDS_P1;SDS_P2;PMS_P1;PMS_P2;Temp;Humidity;BMP_temperature;BMP_pressure;BME280_temperature;BME280_humidity;BME280_pressure;Samples;Min_cycle;Max_cycle;Signal;HPM_P1;HPM_P2
2024/04/22 00:00:54;;;;;;;0.10;0.10;;;;;;;8.27;58.57;102883.00;5421315;26;20005;-83
2024/04/22 00:03:20;;;;;;;0.17;0.17;;;;;;;8.24;58.67;102882.94;5420111;26;20023;-85
2024/04/22 00:05:54;;;;;;;0.20;0.20;;;;;;;8.25;58.87;102882.97;5409557;26;20008;-84
2024/04/22 00:08:21;;;;;;;0.10;0.10;;;;;;;8.20;59.04;102887.25;5406553;26;19999;-85
2024/04/22 00:10:48;;;;;;;0.10;0.10;;;;;;;8.13;59.67;102880.03;5407473;26;20000;-83
2024/04/22 00:13:14;;;;;;;0.00;0.00;;;;;;;8.14;59.32;102892.41;5428320;26;19994;-85
2024/04/22 00:15:40;;;;;;;0.45;0.45;;;;;;;8.11;59.57;102894.94;5439728;26;20003;-84
2024/04/22 00:18:06;;;;;;;0.10;0.10;;;;;;;8.08;59.21;102882.56;5425171;26;20003;-83
2024/04/22 00:20:32;;;;;;;0.00;0.00;;;;;;;8.05;59.67;102890.44;5430789;26;20196;-84
2024/04/22 00:22:58;;;;;;;0.10;0.10;;;;;;;8.04;59.13;102886.00;5408654;26;20007;-83
2024/04/22 00:25:24;;;;;;;0.10;0.10;;;;;;;8.02;59.35;102887.72;5400675;26;20323;-83
2024/04/22 00:27:54;;;;;;;0.10;0.10;;;;;;;8.01;59.32;102895.59;5408663;26;20071;-83
2024/04/22 00:30:20;;;;;;;0.10;0.10;;;;;;;8.00;59.71;102884.16;5414808;26;20007;-83
2024/04/22 00:32:46;;;;;;;0.10;0.10;;;;;;;7.99;59.32;102887.66;5409179;26;19996;-83
2024/04/22 00:35:12;;;;;;;0.10;0.10;;;;;;;7.94;60.52;102884.00;5405184;26;20015;-83
2024/04/22 00:37:38;;;;;;;0.10;0.10;;;;;;;7.95;60.03;102880.53;5415405;26;20012;-84
2024/04/22 00:40:05;;;;;;;0.10;0.10;;;;;;;7.95;60.41;102885.81;5414439;26;20008;-84
2024/04/22 00:42:31;;;;;;;0.10;0.10;;;;;;;7.93;60.58;102885.75;5411650;26;20023;-83
2024/04/22 00:44:57;;;;;;;0.10;0.10;;;;;;;7.94;60.29;102886.66;5399132;26;20076;-83
2024/04/22 00:47:24;;;;;;;0.15;0.15;;;;;;;7.94;60.00;102884.00;5409270;26;19996;-83
2024/04/22 00:49:51;;;;;;;0.10;0.10;;;;;;;7.91;60.03;102892.75;5398212;26;20524;-83
2024/04/22 00:52:18;;;;;;;0.10;0.10;;;;;;;7.90;60.04;102887.41;5398891;26;20008;-83
2024/04/22 00:54:46;;;;;;;0.10;0.10;;;;;;;7.88;60.36;102883.88;5402022;26;20361;-83
2024/04/22 00:57:13;;;;;;;0.30;0.30;;;;;;;7.86;60.72;102891.75;5407383;26;20069;-83
2024/04/22 00:59:40;;;;;;;0.10;0.10;;;;;;;7.86;60.48;102888.19;5407435;26;20000;-83
2024/04/22 01:02:06;;;;;;;0.10;0.10;;;;;;;7.86;60.09;102880.28;5387283;26;20000;-83
2024/04/22 01:04:34;;;;;;;0.10;0.10;;;;;;;7.83;60.73;102881.09;5405393;26;20029;-83
2024/04/22 01:07:01;;;;;;;0.10;0.10;;;;;;;7.83;60.89;102877.59;5397479;26;20008;-84
2024/04/22 01:09:27;;;;;;;0.10;0.10;;;;;;;7.80;60.70;102878.41;5409989;26;20004;-84
2024/04/22 01:11:53;;;;;;;0.10;0.10;;;;;;;7.77;60.50;102873.03;5407058;26;20000;-84
2024/04/22 01:14:19;;;;;;;0.08;0.08;;;;;;;7.77;59.87;102878.31;5425440;26;20053;-83
2024/04/22 01:16:54;;;;;;;0.10;0.10;;;;;;;7.78;60.06;102872.19;5411847;26;20043;-83
2024/04/22 01:19:21;;;;;;;0.10;0.10;;;;;;;7.69;60.06;102870.22;5404808;26;19995;-82
2024/04/22 01:21:49;;;;;;;0.10;0.10;;;;;;;7.70;59.98;102871.09;5399925;26;20015;-83
2024/04/22 01:24:17;;;;;;;0.00;0.00;;;;;;;7.68;60.25;102865.78;5404660;26;19996;-83
2024/04/22 01:26:45;;;;;;;0.10;0.10;;;;;;;7.68;60.11;102864.91;5404929;26;20471;-84
2024/04/22 01:29:12;;;;;;;0.10;0.10;;;;;;;7.66;60.46;102856.94;5413630;26;20032;-84
2024/04/22 01:31:38;;;;;;;0.13;0.13;;;;;;;7.65;60.34;102859.53;5409299;26;20007;-85
2024/04/22 01:34:05;;;;;;;0.10;0.10;;;;;;;7.61;60.53;102854.22;5425361;26;20044;-85
2024/04/22 01:36:31;;;;;;;0.10;0.10;;;;;;;7.58;60.88;102854.13;5424796;26;20015;-85
2024/04/22 01:38:58;;;;;;;0.10;0.10;;;;;;;7.57;60.79;102854.09;5422040;26;19992;-83
2024/04/22 01:41:24;;;;;;;0.10;0.10;;;;;;;7.56;60.51;102854.94;5404669;26;21349;-83
2024/04/22 01:43:50;;;;;;;1.35;0.75;;;;;;;7.53;61.03;102845.19;5407967;26;20018;-83
2024/04/22 01:46:16;;;;;;;0.10;0.10;;;;;;;7.53;60.59;102844.31;5401978;26;20080;-83
2024/04/22 01:48:42;;;;;;;0.10;0.10;;;;;;;7.51;60.53;102838.09;5408594;26;19999;-83
2024/04/22 01:51:09;;;;;;;0.10;0.10;;;;;;;7.50;60.70;102845.13;5408641;26;20419;-83
2024/04/22 01:53:37;;;;;;;0.10;0.10;;;;;;;7.51;60.66;102841.63;5416193;26;20072;-83
2024/04/22 01:56:04;;;;;;;0.10;0.10;;;;;;;7.48;61.13;102841.56;5410931;26;20011;-83
2024/04/22 01:58:33;;;;;;;0.10;0.10;;;;;;;7.49;60.85;102834.53;5409822;26;20000;-83
2024/04/22 02:01:08;;;;;;;0.10;0.10;;;;;;;7.52;60.81;102837.25;5404224;26;19992;-83
2024/04/22 02:03:34;;;;;;;1.65;1.55;;;;;;;7.47;60.69;102828.34;5411448;26;20372;-82
2024/04/22 02:06:00;;;;;;;0.38;0.38;;;;;;;7.43;61.11;102822.09;5412852;26;20098;-83
2024/04/22 02:08:27;;;;;;;0.10;0.10;;;;;;;7.39;60.56;102823.75;5406091;26;20006;-83
2024/04/22 02:10:53;;;;;;;0.10;0.10;;;;;;;7.39;60.04;102817.56;5409358;26;20353;-83
2024/04/22 02:13:19;;;;;;;0.10;0.10;;;;;;;7.40;60.30;102822.91;5413064;26;20022;-83
2024/04/22 02:15:45;;;;;;;0.10;0.10;;;;;;;7.39;60.74;102818.50;5413506;26;20023;-82
2024/04/22 02:18:11;;;;;;;0.10;0.10;;;;;;;7.40;60.45;102814.09;5400143;26;20006;-83
2024/04/22 02:20:37;;;;;;;0.10;0.10;;;;;;;7.39;60.84;102809.66;5405243;26;20007;-83
2024/04/22 02:23:04;;;;;;;0.10;0.10;;;;;;;7.43;60.41;102812.44;5402557;26;20346;-83
2024/04/22 02:25:30;;;;;;;0.10;0.10;;;;;;;7.43;60.45;102811.53;5413940;26;19999;-82
2024/04/22 02:27:56;;;;;;;0.10;0.10;;;;;;;7.41;60.73;102813.25;5399603;26;20003;-83
2024/04/22 02:30:23;;;;;;;0.10;0.10;;;;;;;7.42;60.39;102805.34;5402701;26;19996;-83
2024/04/22 02:32:49;;;;;;;0.32;0.32;;;;;;;7.41;60.71;102808.88;5412303;26;20007;-83
2024/04/22 02:35:16;;;;;;;0.10;0.10;;;;;;;7.42;60.80;102804.47;5408545;26;19999;-83
2024/04/22 02:37:42;;;;;;;0.75;0.75;;;;;;;7.42;60.62;102810.63;5393229;26;20014;-83
2024/04/22 02:40:08;;;;;;;0.45;0.45;;;;;;;7.41;60.86;102808.88;5403080;26;20035;-82
2024/04/22 02:42:34;;;;;;;0.10;0.10;;;;;;;7.45;60.82;102816.00;5399038;26;20063;-84
2024/04/22 02:45:00;;;;;;;0.10;0.10;;;;;;;7.48;60.97;102814.28;5398096;26;20003;-84
2024/04/22 02:47:27;;;;;;;0.10;0.10;;;;;;;7.55;60.61;102808.31;5401939;26;19999;-82
2024/04/22 02:49:55;;;;;;;0.10;0.10;;;;;;;7.59;60.71;102812.81;5419590;26;19995;-83
2024/04/22 02:52:21;;;;;;;0.10;0.10;;;;;;;7.64;60.72;102815.53;5418115;26;19996;-85
2024/04/22 02:54:47;;;;;;;0.10;0.10;;;;;;;7.70;60.58;102815.69;5425519;26;19999;-85
2024/04/22 02:57:13;;;;;;;0.10;0.10;;;;;;;7.70;60.55;102800.78;5421290;26;19996;-84
2024/04/22 02:59:40;;;;;;;0.10;0.10;;;;;;;7.74;60.09;102802.63;5398731;26;19996;-81
2024/04/22 03:02:06;;;;;;;0.10;0.10;;;;;;;7.78;60.50;102806.22;5405076;26;20004;-83
2024/04/22 03:04:32;;;;;;;0.10;0.10;;;;;;;7.82;60.56;102804.53;5405611;26;20045;-82
2024/04/22 03:06:58;;;;;;;0.10;0.10;;;;;;;7.85;60.27;102804.59;5408543;26;20004;-83
2024/04/22 03:09:25;;;;;;;0.10;0.10;;;;;;;7.90;60.17;102805.59;5406919;26;19996;-84
2024/04/22 03:11:51;;;;;;;0.10;0.10;;;;;;;7.86;60.64;102807.31;5408048;26;20406;-83
2024/04/22 03:14:17;;;;;;;0.10;0.10;;;;;;;7.94;60.22;102804.81;5405493;26;20000;-82
2024/04/22 03:16:43;;;;;;;0.10;0.10;;;;;;;7.97;59.86;102806.63;5408729;26;19996;-82
2024/04/22 03:19:09;;;;;;;0.00;0.00;;;;;;;7.96;60.24;102812.78;5405868;26;19995;-83
2024/04/22 03:21:36;;;;;;;0.10;0.10;;;;;;;7.99;60.09;102800.53;5396610;26;20409;-83
2024/04/22 03:24:03;;;;;;;0.20;0.20;;;;;;;8.02;60.08;102805.00;5405198;26;20420;-82
2024/04/22 03:26:29;;;;;;;0.10;0.10;;;;;;;8.06;59.82;102805.09;5406904;26;20351;-82
2024/04/22 03:28:55;;;;;;;0.10;0.10;;;;;;;8.12;59.63;102803.44;5409323;26;20016;-82
2024/04/22 03:31:21;;;;;;;0.10;0.10;;;;;;;8.14;59.89;102801.72;5412374;26;19995;-84
2024/04/22 03:33:47;;;;;;;0.13;0.13;;;;;;;8.16;59.61;102795.63;5401652;26;20064;-83
2024/04/22 03:36:14;;;;;;;0.10;0.10;;;;;;;8.15;59.58;102798.22;5407739;26;20001;-82
2024/04/22 03:38:40;;;;;;;0.10;0.10;;;;;;;8.18;59.51;102798.31;5399202;26;20447;-82
2024/04/22 03:41:06;;;;;;;0.10;0.10;;;;;;;8.17;59.48;102797.38;5397728;26;20008;-82
2024/04/22 03:43:32;;;;;;;0.10;0.10;;;;;;;8.14;59.38;102794.69;5402674;26;20331;-81
2024/04/22 03:51:31;;;;;;;0.10;0.10;;;;;;;8.14;59.24;102785.88;5397095;26;20007;-81
2024/04/22 03:53:57;;;;;;;0.10;0.10;;;;;;;8.10;59.32;102785.81;5402256;26;20011;-82
2024/04/22 03:56:23;;;;;;;0.43;0.43;;;;;;;8.10;58.99;102775.25;5406562;26;19995;-81
2024/04/22 03:58:49;;;;;;;0.10;0.10;;;;;;;8.09;59.02;102777.88;5406463;26;20076;-82
2024/04/22 04:01:16;;;;;;;0.20;0.20;;;;;;;8.06;59.06;102769.88;5415342;26;20011;-84
2024/04/22 04:03:42;;;;;;;0.00;0.00;;;;;;;8.03;59.08;102768.06;5392000;26;20042;-82
2024/04/22 04:06:09;;;;;;;0.10;0.10;;;;;;;8.01;59.17;102771.53;5414025;26;20007;-82
2024/04/22 04:08:35;;;;;;;0.10;0.10;;;;;;;7.96;59.17;102767.91;5410610;26;20011;-82
2024/04/22 04:11:09;;;;;;;0.10;0.10;;;;;;;7.96;59.10;102775.81;5418310;26;19984;-83
2024/04/22 04:13:36;;;;;;;0.05;0.05;;;;;;;7.94;59.22;102770.50;5437466;26;20037;-85
2024/04/22 04:16:02;;;;;;;0.00;0.00;;;;;;;7.88;59.54;102767.72;5432542;26;19995;-84
2024/04/22 04:18:28;;;;;;;0.10;0.10;;;;;;;7.89;59.18;102769.53;5419579;26;19992;-81
2024/04/22 04:20:54;;;;;;;0.10;0.10;;;;;;;7.87;59.39;102768.59;5403152;26;19996;-82
2024/04/22 04:23:21;;;;;;;0.05;0.05;;;;;;;7.84;59.07;102764.13;5411985;26;20069;-81
2024/04/22 04:25:47;;;;;;;0.10;0.10;;;;;;;7.82;59.19;102771.13;5403264;26;20343;-81
2024/04/22 04:28:13;;;;;;;0.10;0.10;;;;;;;7.81;59.11;102761.41;5399528;26;20007;-84
2024/04/22 04:30:39;;;;;;;0.10;0.10;;;;;;;7.78;59.03;102767.50;5408490;26;20335;-82
2024/04/22 04:33:05;;;;;;;0.10;0.10;;;;;;;7.74;59.09;102763.03;5402060;26;20008;-83
2024/04/22 04:35:31;;;;;;;0.10;0.10;;;;;;;7.73;59.28;102760.38;5404556;26;19995;-84
2024/04/22 04:37:57;;;;;;;0.10;0.10;;;;;;;7.70;59.22;102755.91;5392424;26;20024;-83
2024/04/22 04:40:24;;;;;;;0.10;0.10;;;;;;;7.69;59.56;102764.69;5410314;26;19991;-83
2024/04/22 04:42:50;;;;;;;0.10;0.10;;;;;;;7.68;59.39;102757.63;5401710;26;20011;-83
2024/04/22 04:45:16;;;;;;;0.00;0.00;;;;;;;7.67;59.65;102758.47;5408344;26;20004;-83
2024/04/22 04:47:42;;;;;;;0.10;0.10;;;;;;;7.67;59.76;102763.75;5411921;26;20018;-83
2024/04/22 04:50:08;;;;;;;0.10;0.10;;;;;;;7.67;59.99;102768.13;5403802;26;19999;-84
2024/04/22 04:52:34;;;;;;;0.10;0.10;;;;;;;7.64;59.92;102763.69;5398581;26;20032;-84
2024/04/22 04:55:00;;;;;;;0.10;0.10;;;;;;;7.68;59.72;102762.88;5407746;26;20466;-83
2024/04/22 04:57:27;;;;;;;0.10;0.10;;;;;;;7.72;59.74;102762.09;5403101;26;20065;-84
2024/04/22 04:59:53;;;;;;;0.00;0.00;;;;;;;7.76;59.98;102761.31;5411034;26;19996;-84
2024/04/22 05:02:19;;;;;;;0.10;0.10;;;;;;;7.82;59.49;102762.31;5402724;26;20077;-84
2024/04/22 05:04:45;;;;;;;0.10;0.10;;;;;;;7.87;59.71;102760.66;5402677;26;20000;-83
2024/04/22 05:07:11;;;;;;;0.10;0.10;;;;;;;7.92;59.65;102756.38;5396782;26;20144;-83
2024/04/22 05:09:37;;;;;;;0.10;0.10;;;;;;;7.95;59.61;102759.09;5411053;26;20068;-82
2024/04/22 05:12:04;;;;;;;0.10;0.10;;;;;;;7.98;59.66;102764.44;5406598;26;20014;-82
2024/04/22 05:14:30;;;;;;;0.10;0.10;;;;;;;8.02;59.67;102761.00;5402673;26;19992;-82
2024/04/22 05:16:56;;;;;;;0.10;0.10;;;;;;;8.04;59.67;102759.28;5404331;26;19992;-82
2024/04/22 05:19:22;;;;;;;0.10;0.10;;;;;;;8.06;59.84;102762.84;5395270;26;19996;-82
2024/04/22 05:21:48;;;;;;;0.10;0.10;;;;;;;8.10;59.47;102769.97;5405579;26;20004;-83
2024/04/22 05:24:18;;;;;;;0.10;0.10;;;;;;;8.14;59.66;102772.66;5417887;26;20390;-82
2024/04/22 05:26:44;;;;;;;0.03;0.03;;;;;;;8.16;59.40;102768.31;5402501;26;19996;-82
2024/04/22 05:29:11;;;;;;;0.20;0.20;;;;;;;8.19;59.59;102768.41;5417980;26;19999;-82
2024/04/22 05:31:37;;;;;;;0.10;0.10;;;;;;;8.17;59.63;102759.53;5437086;26;19999;-84
2024/04/22 05:36:49;;;;;;;0.10;0.10;;;;;;;8.26;59.09;102758.00;5412637;26;20006;-83
2024/04/22 05:39:15;;;;;;;0.10;0.10;;;;;;;8.31;59.19;102757.19;5398222;26;19993;-83
2024/04/22 05:41:41;;;;;;;0.10;0.10;;;;;;;8.36;59.14;102750.25;5413773;26;20068;-83
2024/04/22 05:44:08;;;;;;;0.10;0.10;;;;;;;8.39;58.98;102759.13;5416208;26;20019;-83
2024/04/22 05:46:34;;;;;;;0.10;0.10;;;;;;;8.47;58.87;102759.28;5412608;26;20007;-83
2024/04/22 05:49:00;;;;;;;0.10;0.10;;;;;;;8.55;58.84;102749.78;5411753;26;20012;-82
2024/04/22 05:51:26;;;;;;;0.10;0.10;;;;;;;8.62;58.76;102758.69;5404333;26;19999;-83
2024/04/22 05:53:53;;;;;;;0.10;0.10;;;;;;;8.67;58.61;102762.34;5416004;26;20050;-82
2024/04/22 05:56:19;;;;;;;0.10;0.10;;;;;;;8.75;58.60;102759.84;5405196;26;19995;-82
2024/04/22 05:58:45;;;;;;;0.10;0.10;;;;;;;8.80;58.40;102762.53;5412242;26;19996;-83
2024/04/22 06:01:11;;;;;;;0.08;0.08;;;;;;;8.84;58.02;102754.72;5416014;26;20003;-83
2024/04/22 06:03:37;;;;;;;0.10;0.10;;;;;;;8.87;57.41;102753.88;5414503;26;20003;-83
2024/04/22 06:06:03;;;;;;;0.10;0.10;;;;;;;8.97;57.46;102753.19;5413486;26;20618;-83
2024/04/22 06:08:30;;;;;;;0.10;0.10;;;;;;;9.01;57.34;102755.00;5402353;26;20024;-83
2024/04/22 06:10:56;;;;;;;0.10;0.10;;;;;;;9.10;57.42;102750.72;5397010;26;20005;-84
2024/04/22 06:13:22;;;;;;;0.10;0.10;;;;;;;9.11;57.30;102753.41;5398790;26;20040;-83
2024/04/22 06:15:48;;;;;;;0.10;0.10;;;;;;;9.17;56.89;102748.22;5407177;26;20342;-84
2024/04/22 06:18:14;;;;;;;0.10;0.10;;;;;;;9.22;57.04;102740.34;5397361;26;19992;-83
2024/04/22 06:20:40;;;;;;;0.32;0.32;;;;;;;9.29;56.82;102741.34;5398921;26;20063;-83
2024/04/22 06:23:07;;;;;;;0.03;0.03;;;;;;;9.29;57.27;102747.53;5405638;26;20008;-82
2024/04/22 06:25:33;;;;;;;0.08;0.08;;;;;;;9.43;57.20;102744.22;5408595;26;20014;-83
2024/04/22 06:28:00;;;;;;;0.10;0.10;;;;;;;9.43;56.46;102736.28;5413642;26;19999;-83
2024/04/22 06:30:26;;;;;;;0.10;0.10;;;;;;;9.48;56.60;102739.88;5395885;26;19999;-83
2024/04/22 06:32:52;;;;;;;0.13;0.13;;;;;;;9.45;56.03;102737.19;5398679;26;20029;-82
2024/04/22 06:35:18;;;;;;;0.10;0.10;;;;;;;9.51;56.73;102737.28;5410331;26;20004;-83
2024/04/22 06:37:44;;;;;;;0.03;0.03;;;;;;;9.48;56.05;102732.84;5406220;26;20496;-83
2024/04/22 06:40:10;;;;;;;0.10;0.10;;;;;;;9.45;56.15;102737.19;5412270;26;20096;-83
2024/04/22 06:42:36;;;;;;;0.10;0.10;;;;;;;9.49;56.21;102733.72;5400162;26;20072;-83
2024/04/22 06:45:03;;;;;;;0.10;0.10;;;;;;;9.48;56.44;102735.50;5409699;26;20015;-82
2024/04/22 06:47:30;;;;;;;0.30;0.30;;;;;;;9.47;56.18;102731.06;5428863;26;20014;-82
2024/04/22 06:49:56;;;;;;;0.00;0.00;;;;;;;9.49;56.60;102734.59;5434751;26;20016;-82
2024/04/22 06:52:22;;;;;;;0.10;0.10;;;;;;;9.51;56.71;102729.34;5424740;26;20392;-81
2024/04/22 06:54:48;;;;;;;0.10;0.10;;;;;;;9.55;56.79;102731.16;5414447;26;20004;-82
2024/04/22 06:57:15;;;;;;;0.10;0.10;;;;;;;9.55;56.65;102729.41;5415962;26;19995;-82
2024/04/22 06:59:43;;;;;;;0.10;0.10;;;;;;;9.53;56.88;102727.59;5402638;26;20006;-81
2024/04/22 07:02:09;;;;;;;0.10;0.10;;;;;;;9.60;56.95;102731.25;5411354;26;20056;-81
2024/04/22 07:04:35;;;;;;;0.10;0.10;;;;;;;9.60;56.89;102718.88;5397752;26;20015;-82
2024/04/22 07:07:02;;;;;;;0.10;0.10;;;;;;;9.67;56.97;102722.50;5416839;26;20000;-81
2024/04/22 07:09:28;;;;;;;0.10;0.10;;;;;;;9.68;57.17;102714.59;5409105;26;20466;-81
2024/04/22 07:11:54;;;;;;;0.10;0.10;;;;;;;9.71;57.18;102711.97;5408114;26;20004;-81
2024/04/22 07:14:22;;;;;;;0.10;0.10;;;;;;;9.71;57.12;102711.09;5404596;26;20417;-81
2024/04/22 07:16:56;;;;;;;0.10;0.10;;;;;;;9.78;57.41;102709.41;5415601;26;20450;-81
2024/04/22 07:19:23;;;;;;;0.00;0.00;;;;;;;9.78;57.59;102717.38;5400011;26;20513;-81
2024/04/22 07:21:49;;;;;;;0.10;0.10;;;;;;;9.81;57.51;102714.78;5399696;26;20000;-82
2024/04/22 07:24:15;;;;;;;0.10;0.10;;;;;;;9.86;57.37;102713.06;5409277;26;19997;-82
2024/04/22 07:26:41;;;;;;;0.10;0.10;;;;;;;9.83;57.63;102713.00;5403631;26;20013;-82
2024/04/22 07:29:07;;;;;;;0.10;0.10;;;;;;;9.91;57.59;102716.66;5398675;26;20053;-82
2024/04/22 07:31:34;;;;;;;0.10;0.10;;;;;;;9.95;57.78;102715.81;5403416;26;20000;-82
2024/04/22 07:34:00;;;;;;;0.10;0.10;;;;;;;9.99;58.10;102711.47;5396176;26;20038;-81
2024/04/22 07:36:36;;;;;;;0.10;0.10;;;;;;;10.08;58.17;102713.31;5419307;26;20004;-82
2024/04/22 07:39:04;;;;;;;0.55;0.55;;;;;;;10.07;58.00;102701.84;5434553;26;19995;-81
2024/04/22 07:41:31;;;;;;;0.10;0.10;;;;;;;10.15;58.33;102709.88;5428441;26;20003;-82
2024/04/22 07:43:58;;;;;;;0.10;0.10;;;;;;;10.18;58.05;102705.50;5428921;26;20014;-82
2024/04/22 07:46:25;;;;;;;0.10;0.10;;;;;;;10.23;58.20;102712.63;5429239;26;19999;-81
2024/04/22 07:48:51;;;;;;;0.10;0.10;;;;;;;10.33;57.82;102715.41;5426723;26;20018;-82
2024/04/22 07:51:17;;;;;;;0.10;0.10;;;;;;;10.37;57.43;102711.06;5430795;26;20076;-83
2024/04/22 07:53:44;;;;;;;0.10;0.10;;;;;;;10.48;57.35;102708.50;5419081;26;20002;-82
2024/04/22 07:56:13;;;;;;;0.10;0.10;;;;;;;10.51;57.68;102711.19;5409388;26;20024;-82
2024/04/22 07:58:41;;;;;;;0.10;0.10;;;;;;;10.58;57.24;102707.75;5413646;26;19995;-82
2024/04/22 08:01:07;;;;;;;0.10;0.10;;;;;;;10.68;57.25;102709.59;5422839;26;20458;-83
2024/04/22 08:03:34;;;;;;;1.80;1.75;;;;;;;10.70;57.43;102711.38;5416321;26;20474;-82
2024/04/22 08:06:04;;;;;;;0.10;0.10;;;;;;;10.88;57.50;102708.00;5439222;26;19991;-80
2024/04/22 08:08:32;;;;;;;0.00;0.00;;;;;;;10.97;57.56;102693.06;5441763;26;20019;-81
2024/04/22 08:10:59;;;;;;;0.10;0.10;;;;;;;11.17;57.04;102702.94;5426274;26;20010;-81
2024/04/22 08:13:25;;;;;;;0.10;0.10;;;;;;;11.28;56.76;102703.91;5424617;26;19999;-81
2024/04/22 08:15:51;;;;;;;0.10;0.10;;;;;;;11.38;56.33;102693.38;5423600;26;20004;-81
2024/04/22 08:18:17;;;;;;;0.03;0.03;;;;;;;11.48;56.00;102700.50;5424189;26;19992;-83
2024/04/22 08:20:44;;;;;;;0.10;0.10;;;;;;;11.56;55.76;102693.44;5407968;26;20066;-81
2024/04/22 08:23:11;;;;;;;0.10;0.10;;;;;;;11.71;55.76;102689.09;5415271;26;20004;-82
2024/04/22 08:25:37;;;;;;;0.08;0.08;;;;;;;11.81;56.20;102693.56;5418953;26;19996;-83
2024/04/22 08:28:04;;;;;;;0.10;0.10;;;;;;;11.88;55.03;102692.72;5426201;26;19999;-82
2024/04/22 08:30:31;;;;;;;0.10;0.10;;;;;;;11.98;55.14;102697.22;5400522;26;19999;-83
2024/04/22 08:32:59;;;;;;;0.10;0.10;;;;;;;12.09;55.08;102699.06;5418546;26;19996;-81
2024/04/22 08:35:27;;;;;;;0.20;0.20;;;;;;;12.12;54.68;102693.72;5409446;26;19992;-82
2024/04/22 08:37:53;;;;;;;0.10;0.10;;;;;;;12.20;54.12;102696.41;5422518;26;20486;-81
2024/04/22 08:40:19;;;;;;;0.03;0.03;;;;;;;12.29;54.45;102696.44;5419144;26;21524;-81
2024/04/22 08:42:47;;;;;;;0.57;0.57;;;;;;;12.28;52.51;102699.97;5420355;26;20011;-82
2024/04/22 08:45:13;;;;;;;0.10;0.10;;;;;;;12.30;50.93;102688.47;5422826;26;20009;-82
2024/04/22 08:47:41;;;;;;;0.10;0.10;;;;;;;12.41;52.25;102695.56;5412338;26;20000;-82
2024/04/22 08:50:08;;;;;;;0.10;0.10;;;;;;;12.48;51.82;102705.34;5398652;26;20014;-82
2024/04/22 08:52:34;;;;;;;0.10;0.10;;;;;;;12.56;50.79;102703.59;5407312;26;20322;-82
2024/04/22 08:55:01;;;;;;;0.08;0.08;;;;;;;12.77;52.00;102709.81;5389245;26;20007;-82
2024/04/22 08:57:27;;;;;;;1.73;0.75;;;;;;;12.87;51.82;102706.28;5417225;26;20007;-82
2024/04/22 08:59:54;;;;;;;0.10;0.10;;;;;;;12.93;51.19;102700.97;5401824;26;20004;-83
2024/04/22 09:02:21;;;;;;;0.00;0.00;;;;;;;12.93;49.83;102694.75;5415908;26;20003;-82
2024/04/22 09:04:47;;;;;;;0.15;0.15;;;;;;;12.92;50.51;102693.88;5395591;26;20004;-82
2024/04/22 09:07:18;;;;;;;0.00;0.00;;;;;;;12.91;50.56;102692.09;5414622;26;20028;-83
2024/04/22 09:09:45;;;;;;;0.10;0.10;;;;;;;12.90;50.59;102695.63;5410969;26;20008;-83
2024/04/22 09:12:16;;;;;;;0.10;0.10;;;;;;;12.91;49.58;102697.41;5415034;26;20011;-82
2024/04/22 09:14:43;;;;;;;0.50;0.50;;;;;;;12.95;50.56;102677.88;5418937;26;20592;-83
2024/04/22 09:17:16;;;;;;;0.10;0.10;;;;;;;13.01;50.39;102681.44;5416978;26;19991;-82
2024/04/22 09:19:45;;;;;;;0.10;0.10;;;;;;;13.01;50.95;102681.44;5407838;26;20351;-82
2024/04/22 09:22:12;;;;;;;0.10;0.10;;;;;;;13.02;50.67;102683.22;5428188;26;20045;-82
2024/04/22 09:24:38;;;;;;;0.08;0.08;;;;;;;12.92;49.92;102688.53;5405260;26;20010;-83
2024/04/22 09:27:05;;;;;;;0.08;0.08;;;;;;;12.95;50.09;102677.88;5406775;26;19999;-82
2024/04/22 09:29:37;;;;;;;0.35;0.35;;;;;;;12.99;50.15;102677.91;5417781;26;20451;-82
2024/04/22 09:32:08;;;;;;;0.20;0.20;;;;;;;12.85;46.41;102673.47;5410868;26;20498;-82
2024/04/22 09:34:39;;;;;;;0.13;0.13;;;;;;;12.84;45.94;102677.00;5400108;26;19999;-82
2024/04/22 09:37:06;;;;;;;0.10;0.10;;;;;;;12.98;46.56;102671.66;5397292;26;20513;-82
2024/04/22 09:39:33;;;;;;;0.10;0.10;;;;;;;12.98;44.24;102679.66;5400200;26;20018;-82
2024/04/22 09:42:01;;;;;;;0.10;0.10;;;;;;;13.08;45.28;102673.47;5398875;26;20400;-82
2024/04/22 09:44:30;;;;;;;0.10;0.10;;;;;;;13.04;44.14;102676.13;5396311;26;20459;-83
2024/04/22 09:46:56;;;;;;;0.13;0.13;;;;;;;13.12;44.88;102674.31;5394032;26;20012;-82
2024/04/22 09:49:25;;;;;;;0.38;0.38;;;;;;;13.27;46.18;102676.06;5401182;26;20088;-82
2024/04/22 09:51:52;;;;;;;0.10;0.10;;;;;;;13.30;43.76;102675.19;5391650;26;20000;-82
2024/04/22 09:54:18;;;;;;;0.00;0.00;;;;;;;13.51;45.85;102672.50;5411283;26;19995;-82
2024/04/22 09:56:48;;;;;;;0.00;0.00;;;;;;;13.64;44.03;102668.00;5395534;26;20071;-82
2024/04/22 09:59:17;;;;;;;0.10;0.10;;;;;;;13.86;45.34;102668.81;5407793;26;20007;-82
2024/04/22 10:01:44;;;;;;;0.00;0.00;;;;;;;13.85;42.43;102661.72;5403028;26;20466;-83
2024/04/22 10:04:12;;;;;;;0.10;0.10;;;;;;;14.10;44.02;102661.59;5405471;26;19996;-83
2024/04/22 10:06:39;;;;;;;0.10;0.10;;;;;;;14.34;43.87;102657.00;5407502;26;19996;-84
2024/04/22 10:09:06;;;;;;;0.10;0.10;;;;;;;14.45;41.65;102662.28;5395125;26;20003;-83
2024/04/22 10:11:33;;;;;;;0.10;0.10;;;;;;;14.46;39.66;102648.91;5409815;26;19999;-83
2024/04/22 10:14:16;;;;;;;0.10;0.10;;;;;;;14.56;41.14;102655.06;5396287;26;20020;-83
2024/04/22 10:16:55;;;;;;;0.10;0.10;;;;;;;14.54;39.06;102663.09;5405521;26;20016;-82
2024/04/22 10:19:21;;;;;;;0.00;0.00;;;;;;;14.40;38.95;102657.88;5397164;26;20009;-83
2024/04/22 10:21:50;;;;;;;0.10;0.10;;;;;;;14.40;40.46;102654.28;5408360;26;19996;-84
2024/04/22 10:24:27;;;;;;;0.00;0.00;;;;;;;14.42;40.69;102655.19;5409138;26;20000;-84
2024/04/22 10:26:55;;;;;;;0.08;0.08;;;;;;;14.34;41.70;102654.34;5413064;26;20016;-84
2024/04/22 10:29:21;;;;;;;0.00;0.00;;;;;;;14.33;40.92;102652.56;5397679;26;20011;-82
2024/04/22 10:31:47;;;;;;;0.10;0.10;;;;;;;14.32;41.18;102646.34;5418674;26;20011;-83
2024/04/22 10:34:14;;;;;;;0.10;0.10;;;;;;;14.42;42.22;102636.50;5408712;26;19996;-84
2024/04/22 10:36:40;;;;;;;0.10;0.10;;;;;;;14.49;41.80;102642.69;5404721;26;20123;-83
2024/04/22 10:39:06;;;;;;;0.10;0.10;;;;;;;14.56;42.29;102633.75;5406807;26;20039;-84
2024/04/22 10:41:32;;;;;;;0.10;0.10;;;;;;;14.40;41.15;102638.28;5438416;26;19991;-84
2024/04/22 10:43:58;;;;;;;0.20;0.20;;;;;;;14.44;41.93;102632.03;5433663;26;19999;-83
2024/04/22 10:46:25;;;;;;;0.10;0.10;;;;;;;14.53;42.48;102620.44;5406886;26;20011;-83
2024/04/22 10:48:52;;;;;;;0.55;0.55;;;;;;;14.65;42.35;102617.66;5401977;26;20049;-83
2024/04/22 10:51:18;;;;;;;0.10;0.10;;;;;;;14.69;40.51;102613.19;5400318;26;20325;-83
2024/04/22 10:53:44;;;;;;;0.10;0.10;;;;;;;14.75;40.92;102613.16;5403442;26;20003;-83
2024/04/22 10:56:11;;;;;;;0.17;0.17;;;;;;;14.90;41.60;102600.56;5405253;26;19999;-85
2024/04/22 10:58:38;;;;;;;0.10;0.10;;;;;;;14.95;41.36;102604.06;5417346;26;20011;-82
2024/04/22 11:01:05;;;;;;;0.20;0.20;;;;;;;15.01;41.00;102602.22;5414320;26;20450;-83
2024/04/22 11:03:31;;;;;;;0.10;0.10;;;;;;;15.16;40.79;102601.16;5416592;26;19999;-82
2024/04/22 11:06:03;;;;;;;0.03;0.03;;;;;;;15.16;37.56;102603.81;5405635;26;20003;-82
2024/04/22 11:08:30;;;;;;;0.10;0.10;;;;;;;15.27;38.51;102600.19;5405579;26;20020;-82
2024/04/22 11:10:58;;;;;;;0.10;0.10;;;;;;;15.36;38.82;102594.72;5420788;26;20007;-81
2024/04/22 11:13:25;;;;;;;0.10;0.10;;;;;;;15.45;38.34;102591.94;5422391;26;20353;-82
2024/04/22 11:15:51;;;;;;;0.10;0.10;;;;;;;15.65;38.48;102593.44;5421592;26;19991;-82
2024/04/22 11:18:20;;;;;;;0.08;0.08;;;;;;;15.79;36.68;102575.44;5421901;26;20068;-82
2024/04/22 11:20:47;;;;;;;0.10;0.10;;;;;;;15.91;37.85;102585.09;5413935;26;20004;-82
2024/04/22 11:23:13;;;;;;;0.00;0.00;;;;;;;16.13;36.88;102577.66;5413458;26;20069;-83
2024/04/22 11:25:39;;;;;;;0.10;0.10;;;;;;;16.17;37.42;102574.03;5415084;26;19996;-82
2024/04/22 11:28:06;;;;;;;0.10;0.10;;;;;;;16.09;37.84;102581.28;5402753;26;20003;-83
2024/04/22 11:30:32;;;;;;;0.10;0.10;;;;;;;15.88;38.61;102576.28;5421613;26;20001;-82
2024/04/22 11:33:01;;;;;;;0.40;0.40;;;;;;;15.92;39.46;102575.31;5414182;26;20479;-82
2024/04/22 11:35:28;;;;;;;0.63;0.63;;;;;;;15.93;39.37;102580.63;5402751;26;20010;-82
2024/04/22 11:37:54;;;;;;;1.33;0.55;;;;;;;16.03;39.57;102570.69;5405428;26;20015;-82